sensor_id;sensor_type;location;lat;lon;timestamp;P1;durP1;ratioP1;P2;durP2;ratioP2
8104;SDS011;4095;48.942;9.104;2023-07-13T00:01:50;1.83;;;1.43;;
8104;SDS011;4095;48.942;9.104;2023-07-13T00:04:17;3.80;;;2.00;;
8104;SDS011;4095;48.942;9.104;2023-07-13T00:06:44;3.97;;;1.83;;
8104;SDS011;4095;48.942;9.104;2023-07-13T00:09:14;3.57;;;1.50;;
8104;SDS011;4095;48.942;9.104;2023-07-13T00:11:41;3.30;;;1.50;;
8104;SDS011;4095;48.942;9.104;2023-07-13T00:14:08;3.70;;;1.67;;
8104;SDS011;4095;48.942;9.104;2023-07-13T00:16:35;5.37;;;1.50;;
8104;SDS011;4095;48.942;9.104;2023-07-13T00:19:03;2.77;;;1.70;;
8104;SDS011;4095;48.942;9.104;2023-07-13T00:21:29;2.63;;;1.40;;
8104;SDS011;4095;48.942;9.104;2023-07-13T00:24:01;2.30;;;1.30;;
8104;SDS011;4095;48.942;9.104;2023-07-13T00:26:27;2.13;;;1.33;;
8104;SDS011;4095;48.942;9.104;2023-07-13T00:28:53;2.40;;;1.40;;
8104;SDS011;4095;48.942;9.104;2023-07-13T00:31:19;3.23;;;1.37;;
8104;SDS011;4095;48.942;9.104;2023-07-13T00:33:45;1.73;;;1.23;;
8104;SDS011;4095;48.942;9.104;2023-07-13T00:36:11;3.53;;;1.40;;
8104;SDS011;4095;48.942;9.104;2023-07-13T00:38:36;3.73;;;1.37;;
8104;SDS011;4095;48.942;9.104;2023-07-13T00:41:02;2.57;;;1.30;;
8104;SDS011;4095;48.942;9.104;2023-07-13T00:43:29;1.27;;;1.13;;
8104;SDS011;4095;48.942;9.104;2023-07-13T00:48:25;3.83;;;1.50;;
8104;SDS011;4095;48.942;9.104;2023-07-13T00:51:00;2.10;;;1.40;;
8104;SDS011;4095;48.942;9.104;2023-07-13T00:53:27;2.57;;;1.40;;
8104;SDS011;4095;48.942;9.104;2023-07-13T00:55:55;2.33;;;1.50;;
8104;SDS011;4095;48.942;9.104;2023-07-13T00:58:21;3.00;;;1.40;;
8104;SDS011;4095;48.942;9.104;2023-07-13T01:00:49;1.87;;;1.57;;
8104;SDS011;4095;48.942;9.104;2023-07-13T01:03:16;4.23;;;1.47;;
8104;SDS011;4095;48.942;9.104;2023-07-13T01:05:42;3.07;;;1.50;;
8104;SDS011;4095;48.942;9.104;2023-07-13T01:08:08;2.37;;;1.43;;
8104;SDS011;4095;48.942;9.104;2023-07-13T01:10:34;2.67;;;1.33;;
8104;SDS011;4095;48.942;9.104;2023-07-13T01:13:03;2.07;;;1.30;;
8104;SDS011;4095;48.942;9.104;2023-07-13T01:15:42;2.10;;;1.40;;
8104;SDS011;4095;48.942;9.104;2023-07-13T01:18:16;2.00;;;1.40;;
8104;SDS011;4095;48.942;9.104;2023-07-13T01:21:02;2.83;;;1.50;;
8104;SDS011;4095;48.942;9.104;2023-07-13T01:23:29;1.93;;;1.20;;
8104;SDS011;4095;48.942;9.104;2023-07-13T01:25:56;2.07;;;1.43;;
8104;SDS011;4095;48.942;9.104;2023-07-13T01:28:24;2.60;;;1.60;;
8104;SDS011;4095;48.942;9.104;2023-07-13T01:30:51;2.87;;;1.50;;
8104;SDS011;4095;48.942;9.104;2023-07-13T01:33:18;2.60;;;1.50;;
8104;SDS011;4095;48.942;9.104;2023-07-13T01:35:47;3.43;;;1.60;;
8104;SDS011;4095;48.942;9.104;2023-07-13T01:38:18;3.17;;;1.40;;
8104;SDS011;4095;48.942;9.104;2023-07-13T01:40:46;1.97;;;1.30;;
8104;SDS011;4095;48.942;9.104;2023-07-13T01:43:11;2.47;;;1.30;;
8104;SDS011;4095;48.942;9.104;2023-07-13T01:45:38;2.60;;;1.53;;
8104;SDS011;4095;48.942;9.104;2023-07-13T01:48:03;1.50;;;1.30;;
8104;SDS011;4095;48.942;9.104;2023-07-13T01:50:31;2.13;;;1.50;;
8104;SDS011;4095;48.942;9.104;2023-07-13T01:52:57;2.80;;;1.40;;
8104;SDS011;4095;48.942;9.104;2023-07-13T01:55:23;3.40;;;1.50;;
8104;SDS011;4095;48.942;9.104;2023-07-13T01:57:49;2.50;;;1.50;;
8104;SDS011;4095;48.942;9.104;2023-07-13T02:00:14;2.90;;;1.50;;
8104;SDS011;4095;48.942;9.104;2023-07-13T02:02:40;3.43;;;1.50;;
8104;SDS011;4095;48.942;9.104;2023-07-13T02:05:06;2.10;;;1.27;;
8104;SDS011;4095;48.942;9.104;2023-07-13T02:07:32;2.37;;;1.40;;
8104;SDS011;4095;48.942;9.104;2023-07-13T02:09:58;3.17;;;1.30;;
8104;SDS011;4095;48.942;9.104;2023-07-13T02:12:23;3.20;;;1.67;;
8104;SDS011;4095;48.942;9.104;2023-07-13T02:14:49;3.27;;;1.67;;
8104;SDS011;4095;48.942;9.104;2023-07-13T02:17:15;3.50;;;1.50;;
8104;SDS011;4095;48.942;9.104;2023-07-13T02:19:40;2.13;;;1.50;;
8104;SDS011;4095;48.942;9.104;2023-07-13T02:22:06;2.50;;;1.40;;
8104;SDS011;4095;48.942;9.104;2023-07-13T02:24:32;1.97;;;1.20;;
8104;SDS011;4095;48.942;9.104;2023-07-13T02:26:57;3.73;;;1.53;;
8104;SDS011;4095;48.942;9.104;2023-07-13T02:29:23;4.77;;;1.60;;
8104;SDS011;4095;48.942;9.104;2023-07-13T02:31:48;4.70;;;1.60;;
8104;SDS011;4095;48.942;9.104;2023-07-13T02:34:14;3.67;;;1.57;;
8104;SDS011;4095;48.942;9.104;2023-07-13T02:36:40;1.57;;;1.20;;
8104;SDS011;4095;48.942;9.104;2023-07-13T02:39:05;2.67;;;1.50;;
8104;SDS011;4095;48.942;9.104;2023-07-13T02:41:31;1.67;;;1.50;;
8104;SDS011;4095;48.942;9.104;2023-07-13T02:43:57;2.80;;;1.53;;
8104;SDS011;4095;48.942;9.104;2023-07-13T02:46:29;2.23;;;1.60;;
8104;SDS011;4095;48.942;9.104;2023-07-13T02:48:58;2.30;;;1.60;;
8104;SDS011;4095;48.942;9.104;2023-07-13T02:51:24;4.80;;;1.70;;
8104;SDS011;4095;48.942;9.104;2023-07-13T02:53:50;2.73;;;1.77;;
8104;SDS011;4095;48.942;9.104;2023-07-13T02:56:16;3.27;;;1.73;;
8104;SDS011;4095;48.942;9.104;2023-07-13T02:58:41;3.73;;;1.40;;
8104;SDS011;4095;48.942;9.104;2023-07-13T03:01:07;4.23;;;2.00;;
8104;SDS011;4095;48.942;9.104;2023-07-13T03:03:34;2.13;;;1.50;;
8104;SDS011;4095;48.942;9.104;2023-07-13T03:06:00;2.93;;;1.67;;
8104;SDS011;4095;48.942;9.104;2023-07-13T03:08:28;4.20;;;2.07;;
8104;SDS011;4095;48.942;9.104;2023-07-13T03:11:01;6.30;;;2.00;;
8104;SDS011;4095;48.942;9.104;2023-07-13T03:13:28;4.00;;;1.93;;
8104;SDS011;4095;48.942;9.104;2023-07-13T03:15:53;5.23;;;2.90;;
8104;SDS011;4095;48.942;9.104;2023-07-13T03:18:19;3.63;;;1.70;;
8104;SDS011;4095;48.942;9.104;2023-07-13T03:20:44;4.03;;;1.60;;
8104;SDS011;4095;48.942;9.104;2023-07-13T03:23:10;2.77;;;1.70;;
8104;SDS011;4095;48.942;9.104;2023-07-13T03:25:36;2.33;;;1.40;;
8104;SDS011;4095;48.942;9.104;2023-07-13T03:28:01;5.93;;;1.90;;
8104;SDS011;4095;48.942;9.104;2023-07-13T03:30:27;4.03;;;1.67;;
8104;SDS011;4095;48.942;9.104;2023-07-13T03:32:53;3.43;;;1.60;;
8104;SDS011;4095;48.942;9.104;2023-07-13T03:35:18;4.40;;;1.50;;
8104;SDS011;4095;48.942;9.104;2023-07-13T03:37:44;2.67;;;1.70;;
8104;SDS011;4095;48.942;9.104;2023-07-13T03:40:10;2.17;;;1.70;;
8104;SDS011;4095;48.942;9.104;2023-07-13T03:42:35;4.77;;;1.90;;
8104;SDS011;4095;48.942;9.104;2023-07-13T03:45:01;3.23;;;1.57;;
8104;SDS011;4095;48.942;9.104;2023-07-13T03:47:27;3.03;;;1.70;;
8104;SDS011;4095;48.942;9.104;2023-07-13T03:49:52;3.87;;;2.27;;
8104;SDS011;4095;48.942;9.104;2023-07-13T03:52:18;5.10;;;2.50;;
8104;SDS011;4095;48.942;9.104;2023-07-13T03:54:44;3.03;;;2.10;;
8104;SDS011;4095;48.942;9.104;2023-07-13T03:57:09;3.13;;;2.20;;
8104;SDS011;4095;48.942;9.104;2023-07-13T03:59:35;5.23;;;2.20;;
8104;SDS011;4095;48.942;9.104;2023-07-13T04:02:01;4.53;;;2.00;;
8104;SDS011;4095;48.942;9.104;2023-07-13T04:04:29;2.97;;;1.93;;
8104;SDS011;4095;48.942;9.104;2023-07-13T04:06:55;4.00;;;1.80;;
8104;SDS011;4095;48.942;9.104;2023-07-13T04:09:23;4.03;;;1.87;;
8104;SDS011;4095;48.942;9.104;2023-07-13T04:11:49;4.33;;;1.70;;
8104;SDS011;4095;48.942;9.104;2023-07-13T04:14:15;3.03;;;1.97;;
8104;SDS011;4095;48.942;9.104;2023-07-13T04:16:41;5.07;;;2.13;;
8104;SDS011;4095;48.942;9.104;2023-07-13T04:19:07;4.53;;;2.10;;
8104;SDS011;4095;48.942;9.104;2023-07-13T04:21:35;2.80;;;1.77;;
8104;SDS011;4095;48.942;9.104;2023-07-13T04:24:01;3.53;;;1.90;;
8104;SDS011;4095;48.942;9.104;2023-07-13T04:26:28;2.50;;;1.70;;
8104;SDS011;4095;48.942;9.104;2023-07-13T04:28:54;4.53;;;1.87;;
8104;SDS011;4095;48.942;9.104;2023-07-13T04:31:20;2.80;;;1.70;;
8104;SDS011;4095;48.942;9.104;2023-07-13T04:33:46;4.80;;;1.97;;
8104;SDS011;4095;48.942;9.104;2023-07-13T04:36:13;4.47;;;2.03;;
8104;SDS011;4095;48.942;9.104;2023-07-13T04:38:40;2.93;;;2.00;;
8104;SDS011;4095;48.942;9.104;2023-07-13T04:41:06;3.73;;;2.00;;
8104;SDS011;4095;48.942;9.104;2023-07-13T04:43:33;3.13;;;2.07;;
8104;SDS011;4095;48.942;9.104;2023-07-13T04:46:10;2.77;;;2.00;;
8104;SDS011;4095;48.942;9.104;2023-07-13T04:48:37;3.13;;;1.93;;
8104;SDS011;4095;48.942;9.104;2023-07-13T04:51:03;2.80;;;1.93;;
8104;SDS011;4095;48.942;9.104;2023-07-13T04:53:29;4.53;;;1.93;;
8104;SDS011;4095;48.942;9.104;2023-07-13T04:55:55;3.50;;;2.10;;
8104;SDS011;4095;48.942;9.104;2023-07-13T04:58:21;3.23;;;1.67;;
8104;SDS011;4095;48.942;9.104;2023-07-13T05:00:47;2.87;;;1.97;;
8104;SDS011;4095;48.942;9.104;2023-07-13T05:03:13;4.10;;;2.20;;
8104;SDS011;4095;48.942;9.104;2023-07-13T05:05:39;3.80;;;1.80;;
8104;SDS011;4095;48.942;9.104;2023-07-13T05:08:04;3.53;;;1.90;;
8104;SDS011;4095;48.942;9.104;2023-07-13T05:10:30;3.83;;;2.00;;
8104;SDS011;4095;48.942;9.104;2023-07-13T05:12:56;4.93;;;2.17;;
8104;SDS011;4095;48.942;9.104;2023-07-13T05:15:21;5.27;;;2.47;;
8104;SDS011;4095;48.942;9.104;2023-07-13T05:17:48;3.17;;;2.37;;
8104;SDS011;4095;48.942;9.104;2023-07-13T05:20:14;4.43;;;2.43;;
8104;SDS011;4095;48.942;9.104;2023-07-13T05:22:41;6.87;;;2.60;;
8104;SDS011;4095;48.942;9.104;2023-07-13T05:25:07;2.90;;;2.27;;
8104;SDS011;4095;48.942;9.104;2023-07-13T05:27:34;3.80;;;2.27;;
8104;SDS011;4095;48.942;9.104;2023-07-13T05:30:00;4.17;;;2.60;;
8104;SDS011;4095;48.942;9.104;2023-07-13T05:32:26;5.30;;;2.40;;
8104;SDS011;4095;48.942;9.104;2023-07-13T05:34:52;5.70;;;2.37;;
8104;SDS011;4095;48.942;9.104;2023-07-13T05:37:17;4.50;;;2.50;;
8104;SDS011;4095;48.942;9.104;2023-07-13T05:39:43;4.67;;;2.07;;
8104;SDS011;4095;48.942;9.104;2023-07-13T05:42:09;3.90;;;2.20;;
8104;SDS011;4095;48.942;9.104;2023-07-13T05:44:34;2.60;;;2.00;;
8104;SDS011;4095;48.942;9.104;2023-07-13T05:47:00;4.70;;;2.07;;
8104;SDS011;4095;48.942;9.104;2023-07-13T05:49:25;3.43;;;1.90;;
8104;SDS011;4095;48.942;9.104;2023-07-13T05:51:51;4.23;;;2.10;;
8104;SDS011;4095;48.942;9.104;2023-07-13T05:54:16;5.23;;;2.30;;
8104;SDS011;4095;48.942;9.104;2023-07-13T05:56:42;3.00;;;1.90;;
8104;SDS011;4095;48.942;9.104;2023-07-13T05:59:07;5.43;;;1.87;;
8104;SDS011;4095;48.942;9.104;2023-07-13T06:01:33;4.53;;;2.20;;
8104;SDS011;4095;48.942;9.104;2023-07-13T06:03:59;3.27;;;1.83;;
8104;SDS011;4095;48.942;9.104;2023-07-13T06:06:24;4.57;;;1.90;;
8104;SDS011;4095;48.942;9.104;2023-07-13T06:08:50;5.57;;;2.10;;
8104;SDS011;4095;48.942;9.104;2023-07-13T06:11:17;3.00;;;1.90;;
8104;SDS011;4095;48.942;9.104;2023-07-13T06:13:44;5.23;;;2.00;;
8104;SDS011;4095;48.942;9.104;2023-07-13T06:16:10;4.90;;;2.20;;
8104;SDS011;4095;48.942;9.104;2023-07-13T06:18:37;4.83;;;1.90;;
8104;SDS011;4095;48.942;9.104;2023-07-13T06:21:07;3.70;;;1.83;;
8104;SDS011;4095;48.942;9.104;2023-07-13T06:23:37;5.00;;;1.87;;
8104;SDS011;4095;48.942;9.104;2023-07-13T06:26:04;2.70;;;1.77;;
8104;SDS011;4095;48.942;9.104;2023-07-13T06:28:31;3.97;;;1.83;;
8104;SDS011;4095;48.942;9.104;2023-07-13T06:30:57;5.10;;;1.97;;
8104;SDS011;4095;48.942;9.104;2023-07-13T06:33:23;5.33;;;2.20;;
8104;SDS011;4095;48.942;9.104;2023-07-13T06:35:49;2.80;;;1.93;;
8104;SDS011;4095;48.942;9.104;2023-07-13T06:38:15;3.33;;;1.90;;
8104;SDS011;4095;48.942;9.104;2023-07-13T06:40:40;3.37;;;1.77;;
8104;SDS011;4095;48.942;9.104;2023-07-13T06:43:06;3.03;;;1.70;;
8104;SDS011;4095;48.942;9.104;2023-07-13T06:45:39;1.90;;;1.60;;
8104;SDS011;4095;48.942;9.104;2023-07-13T06:48:06;4.10;;;1.90;;
8104;SDS011;4095;48.942;9.104;2023-07-13T06:50:32;3.97;;;1.70;;
8104;SDS011;4095;48.942;9.104;2023-07-13T06:52:58;3.95;;;1.73;;
8104;SDS011;4095;48.942;9.104;2023-07-13T06:55:24;3.33;;;1.73;;
8104;SDS011;4095;48.942;9.104;2023-07-13T06:57:50;3.17;;;1.70;;
8104;SDS011;4095;48.942;9.104;2023-07-13T07:00:16;2.85;;;1.80;;
8104;SDS011;4095;48.942;9.104;2023-07-13T07:02:42;2.67;;;1.70;;
8104;SDS011;4095;48.942;9.104;2023-07-13T07:05:08;3.78;;;1.88;;
8104;SDS011;4095;48.942;9.104;2023-07-13T07:07:34;2.75;;;1.67;;
8104;SDS011;4095;48.942;9.104;2023-07-13T07:09:59;3.20;;;1.67;;
8104;SDS011;4095;48.942;9.104;2023-07-13T07:12:25;5.80;;;1.80;;
8104;SDS011;4095;48.942;9.104;2023-07-13T07:14:50;1.90;;;1.50;;
8104;SDS011;4095;48.942;9.104;2023-07-13T07:17:16;2.97;;;1.60;;
8104;SDS011;4095;48.942;9.104;2023-07-13T07:19:41;2.95;;;1.60;;
8104;SDS011;4095;48.942;9.104;2023-07-13T07:22:07;3.60;;;1.63;;
8104;SDS011;4095;48.942;9.104;2023-07-13T07:24:33;5.70;;;1.63;;
8104;SDS011;4095;48.942;9.104;2023-07-13T07:26:58;2.50;;;1.50;;
8104;SDS011;4095;48.942;9.104;2023-07-13T07:29:24;1.48;;;1.30;;
8104;SDS011;4095;48.942;9.104;2023-07-13T07:31:51;3.20;;;1.60;;
8104;SDS011;4095;48.942;9.104;2023-07-13T07:34:17;3.08;;;1.65;;
8104;SDS011;4095;48.942;9.104;2023-07-13T07:36:43;2.65;;;1.30;;
8104;SDS011;4095;48.942;9.104;2023-07-13T07:39:08;4.90;;;1.70;;
8104;SDS011;4095;48.942;9.104;2023-07-13T07:41:34;2.47;;;1.50;;
8104;SDS011;4095;48.942;9.104;2023-07-13T07:44:00;1.88;;;1.27;;
8104;SDS011;4095;48.942;9.104;2023-07-13T07:46:25;2.30;;;1.38;;
8104;SDS011;4095;48.942;9.104;2023-07-13T07:48:51;3.72;;;1.30;;
8104;SDS011;4095;48.942;9.104;2023-07-13T07:51:16;4.05;;;1.52;;
8104;SDS011;4095;48.942;9.104;2023-07-13T07:53:42;1.98;;;1.48;;
8104;SDS011;4095;48.942;9.104;2023-07-13T07:56:07;2.88;;;1.67;;
8104;SDS011;4095;48.942;9.104;2023-07-13T07:58:35;3.42;;;1.40;;
8104;SDS011;4095;48.942;9.104;2023-07-13T08:01:06;3.92;;;1.73;;
8104;SDS011;4095;48.942;9.104;2023-07-13T08:03:32;3.17;;;1.65;;
8104;SDS011;4095;48.942;9.104;2023-07-13T08:05:57;2.95;;;1.58;;
8104;SDS011;4095;48.942;9.104;2023-07-13T08:08:23;3.47;;;1.70;;
8104;SDS011;4095;48.942;9.104;2023-07-13T08:10:49;4.05;;;1.58;;
8104;SDS011;4095;48.942;9.104;2023-07-13T08:13:15;3.80;;;1.48;;
8104;SDS011;4095;48.942;9.104;2023-07-13T08:15:40;5.20;;;2.40;;
8104;SDS011;4095;48.942;9.104;2023-07-13T08:18:06;2.97;;;1.23;;
8104;SDS011;4095;48.942;9.104;2023-07-13T08:20:36;2.45;;;1.55;;
8104;SDS011;4095;48.942;9.104;2023-07-13T08:23:03;4.13;;;1.52;;
8104;SDS011;4095;48.942;9.104;2023-07-13T08:25:29;2.90;;;1.38;;
8104;SDS011;4095;48.942;9.104;2023-07-13T08:27:54;2.50;;;1.30;;
8104;SDS011;4095;48.942;9.104;2023-07-13T08:30:20;3.00;;;1.35;;
8104;SDS011;4095;48.942;9.104;2023-07-13T08:32:46;3.55;;;1.40;;
8104;SDS011;4095;48.942;9.104;2023-07-13T08:35:12;3.28;;;1.35;;
8104;SDS011;4095;48.942;9.104;2023-07-13T08:37:38;1.92;;;1.10;;
8104;SDS011;4095;48.942;9.104;2023-07-13T08:40:04;1.70;;;1.02;;
8104;SDS011;4095;48.942;9.104;2023-07-13T08:42:39;3.00;;;1.55;;
8104;SDS011;4095;48.942;9.104;2023-07-13T08:47:57;4.75;;;1.45;;
8104;SDS011;4095;48.942;9.104;2023-07-13T08:50:31;2.10;;;1.20;;
8104;SDS011;4095;48.942;9.104;2023-07-13T08:53:01;1.77;;;1.10;;
8104;SDS011;4095;48.942;9.104;2023-07-13T08:55:30;2.78;;;1.33;;
8104;SDS011;4095;48.942;9.104;2023-07-13T08:58:05;2.88;;;1.45;;
8104;SDS011;4095;48.942;9.104;2023-07-13T09:03:22;3.83;;;1.45;;
8104;SDS011;4095;48.942;9.104;2023-07-13T09:05:52;2.72;;;1.23;;
8104;SDS011;4095;48.942;9.104;2023-07-13T09:08:33;2.75;;;1.65;;
8104;SDS011;4095;48.942;9.104;2023-07-13T09:17:00;2.28;;;1.25;;
8104;SDS011;4095;48.942;9.104;2023-07-13T09:19:30;4.22;;;1.80;;
8104;SDS011;4095;48.942;9.104;2023-07-13T09:21:58;3.90;;;1.55;;
8104;SDS011;4095;48.942;9.104;2023-07-13T09:27:01;4.10;;;1.55;;
8104;SDS011;4095;48.942;9.104;2023-07-13T09:29:35;3.65;;;1.73;;
8104;SDS011;4095;48.942;9.104;2023-07-13T09:32:03;2.40;;;1.42;;
8104;SDS011;4095;48.942;9.104;2023-07-13T09:34:33;3.78;;;1.58;;
8104;SDS011;4095;48.942;9.104;2023-07-13T09:36:59;3.45;;;1.45;;
8104;SDS011;4095;48.942;9.104;2023-07-13T09:39:26;3.58;;;1.60;;
8104;SDS011;4095;48.942;9.104;2023-07-13T09:50:08;2.50;;;1.50;;
8104;SDS011;4095;48.942;9.104;2023-07-13T09:52:41;3.95;;;1.77;;
8104;SDS011;4095;48.942;9.104;2023-07-13T09:55:57;3.67;;;1.20;;
8104;SDS011;4095;48.942;9.104;2023-07-13T09:58:13;3.60;;;1.45;;
8104;SDS011;4095;48.942;9.104;2023-07-13T10:00:58;3.30;;;1.60;;
8104;SDS011;4095;48.942;9.104;2023-07-13T10:03:28;4.35;;;1.30;;
8104;SDS011;4095;48.942;9.104;2023-07-13T10:06:00;3.03;;;1.50;;
8104;SDS011;4095;48.942;9.104;2023-07-13T10:08:36;2.65;;;1.15;;
8104;SDS011;4095;48.942;9.104;2023-07-13T10:16:23;5.85;;;1.77;;
8104;SDS011;4095;48.942;9.104;2023-07-13T10:18:53;2.90;;;1.23;;
8104;SDS011;4095;48.942;9.104;2023-07-13T10:21:23;2.03;;;1.25;;
8104;SDS011;4095;48.942;9.104;2023-07-13T10:23:59;3.80;;;1.30;;
8104;SDS011;4095;48.942;9.104;2023-07-13T10:26:31;4.40;;;1.30;;
8104;SDS011;4095;48.942;9.104;2023-07-13T10:29:02;2.97;;;1.30;;
8104;SDS011;4095;48.942;9.104;2023-07-13T10:31:33;5.93;;;1.40;;
8104;SDS011;4095;48.942;9.104;2023-07-13T10:34:01;3.75;;;1.40;;
8104;SDS011;4095;48.942;9.104;2023-07-13T10:38:59;2.42;;;1.15;;
8104;SDS011;4095;48.942;9.104;2023-07-13T10:41:28;4.07;;;1.40;;
8104;SDS011;4095;48.942;9.104;2023-07-13T10:43:57;2.67;;;1.17;;
8104;SDS011;4095;48.942;9.104;2023-07-13T10:46:26;3.22;;;1.35;;
8104;SDS011;4095;48.942;9.104;2023-07-13T10:48:54;2.35;;;1.00;;
8104;SDS011;4095;48.942;9.104;2023-07-13T10:51:26;2.00;;;1.15;;
8104;SDS011;4095;48.942;9.104;2023-07-13T10:54:14;3.42;;;0.90;;
8104;SDS011;4095;48.942;9.104;2023-07-13T10:56:41;2.17;;;1.20;;
8104;SDS011;4095;48.942;9.104;2023-07-13T10:59:26;3.45;;;1.35;;
8104;SDS011;4095;48.942;9.104;2023-07-13T11:01:57;3.85;;;1.33;;
8104;SDS011;4095;48.942;9.104;2023-07-13T11:04:41;3.08;;;1.02;;
8104;SDS011;4095;48.942;9.104;2023-07-13T11:07:20;2.47;;;1.10;;
8104;SDS011;4095;48.942;9.104;2023-07-13T11:09:49;1.75;;;1.10;;
8104;SDS011;4095;48.942;9.104;2023-07-13T11:25:29;2.22;;;1.35;;
8104;SDS011;4095;48.942;9.104;2023-07-13T11:30:46;4.90;;;1.80;;
8104;SDS011;4095;48.942;9.104;2023-07-13T11:33:31;2.80;;;1.40;;
8104;SDS011;4095;48.942;9.104;2023-07-13T11:36:16;3.15;;;1.30;;
8104;SDS011;4095;48.942;9.104;2023-07-13T11:41:23;5.30;;;1.45;;
8104;SDS011;4095;48.942;9.104;2023-07-13T11:43:54;2.83;;;1.80;;
8104;SDS011;4095;48.942;9.104;2023-07-13T11:46:27;5.22;;;1.67;;
8104;SDS011;4095;48.942;9.104;2023-07-13T11:48:53;1.90;;;1.17;;
8104;SDS011;4095;48.942;9.104;2023-07-13T11:51:24;2.58;;;1.20;;
8104;SDS011;4095;48.942;9.104;2023-07-13T11:54:00;3.85;;;1.48;;
8104;SDS011;4095;48.942;9.104;2023-07-13T11:56:28;2.17;;;1.45;;
8104;SDS011;4095;48.942;9.104;2023-07-13T11:58:56;2.28;;;1.15;;
8104;SDS011;4095;48.942;9.104;2023-07-13T12:01:30;2.40;;;1.20;;
8104;SDS011;4095;48.942;9.104;2023-07-13T12:03:58;2.28;;;1.20;;
8104;SDS011;4095;48.942;9.104;2023-07-13T12:06:28;2.70;;;1.23;;
8104;SDS011;4095;48.942;9.104;2023-07-13T12:09:13;2.63;;;1.30;;
8104;SDS011;4095;48.942;9.104;2023-07-13T12:11:43;1.90;;;1.13;;
8104;SDS011;4095;48.942;9.104;2023-07-13T12:14:15;3.17;;;1.27;;
8104;SDS011;4095;48.942;9.104;2023-07-13T12:16:42;3.78;;;1.42;;
8104;SDS011;4095;48.942;9.104;2023-07-13T12:19:14;3.40;;;1.50;;
8104;SDS011;4095;48.942;9.104;2023-07-13T12:21:47;3.03;;;1.40;;
8104;SDS011;4095;48.942;9.104;2023-07-13T12:24:17;3.03;;;1.35;;
8104;SDS011;4095;48.942;9.104;2023-07-13T12:26:44;2.42;;;1.10;;
8104;SDS011;4095;48.942;9.104;2023-07-13T12:29:16;1.63;;;1.00;;
8104;SDS011;4095;48.942;9.104;2023-07-13T12:31:47;2.30;;;1.20;;
8104;SDS011;4095;48.942;9.104;2023-07-13T12:34:15;2.65;;;1.48;;
8104;SDS011;4095;48.942;9.104;2023-07-13T12:44:54;2.60;;;1.35;;
8104;SDS011;4095;48.942;9.104;2023-07-13T12:47:23;3.72;;;1.38;;
8104;SDS011;4095;48.942;9.104;2023-07-13T12:49:59;3.50;;;1.48;;
8104;SDS011;4095;48.942;9.104;2023-07-13T12:52:31;3.17;;;1.25;;
8104;SDS011;4095;48.942;9.104;2023-07-13T12:55:04;2.28;;;1.23;;
8104;SDS011;4095;48.942;9.104;2023-07-13T12:58:03;3.40;;;1.45;;
8104;SDS011;4095;48.942;9.104;2023-07-13T13:00:32;1.80;;;1.23;;
8104;SDS011;4095;48.942;9.104;2023-07-13T13:03:04;3.17;;;1.10;;
8104;SDS011;4095;48.942;9.104;2023-07-13T13:05:43;2.92;;;1.45;;
8104;SDS011;4095;48.942;9.104;2023-07-13T13:08:13;2.17;;;1.08;;
8104;SDS011;4095;48.942;9.104;2023-07-13T13:10:38;1.75;;;1.25;;
8104;SDS011;4095;48.942;9.104;2023-07-13T13:13:04;1.70;;;1.10;;
8104;SDS011;4095;48.942;9.104;2023-07-13T13:15:30;1.83;;;1.30;;
8104;SDS011;4095;48.942;9.104;2023-07-13T13:17:56;1.38;;;1.10;;
8104;SDS011;4095;48.942;9.104;2023-07-13T13:20:23;2.75;;;1.20;;
8104;SDS011;4095;48.942;9.104;2023-07-13T13:22:50;4.20;;;1.10;;
8104;SDS011;4095;48.942;9.104;2023-07-13T13:25:16;3.17;;;1.30;;
8104;SDS011;4095;48.942;9.104;2023-07-13T13:27:43;4.55;;;1.38;;
8104;SDS011;4095;48.942;9.104;2023-07-13T13:30:14;2.55;;;1.40;;
8104;SDS011;4095;48.942;9.104;2023-07-13T13:32:45;2.55;;;1.20;;
8104;SDS011;4095;48.942;9.104;2023-07-13T13:35:16;2.50;;;1.50;;
8104;SDS011;4095;48.942;9.104;2023-07-13T13:37:44;3.22;;;1.10;;
8104;SDS011;4095;48.942;9.104;2023-07-13T13:40:14;2.83;;;1.35;;
8104;SDS011;4095;48.942;9.104;2023-07-13T13:42:44;2.38;;;1.20;;
8104;SDS011;4095;48.942;9.104;2023-07-13T13:45:10;4.30;;;1.30;;
8104;SDS011;4095;48.942;9.104;2023-07-13T13:47:37;3.00;;;1.45;;
8104;SDS011;4095;48.942;9.104;2023-07-13T13:50:21;1.67;;;1.20;;
8104;SDS011;4095;48.942;9.104;2023-07-13T13:52:47;2.03;;;1.20;;
8104;SDS011;4095;48.942;9.104;2023-07-13T13:55:14;2.22;;;1.35;;
8104;SDS011;4095;48.942;9.104;2023-07-13T13:57:41;2.60;;;1.20;;
8104;SDS011;4095;48.942;9.104;2023-07-13T14:00:08;3.15;;;1.42;;
8104;SDS011;4095;48.942;9.104;2023-07-13T14:02:39;2.90;;;1.20;;
8104;SDS011;4095;48.942;9.104;2023-07-13T14:05:13;2.92;;;1.20;;
8104;SDS011;4095;48.942;9.104;2023-07-13T14:07:41;2.33;;;1.38;;
8104;SDS011;4095;48.942;9.104;2023-07-13T14:10:13;1.67;;;1.13;;
8104;SDS011;4095;48.942;9.104;2023-07-13T14:12:44;3.72;;;1.30;;
8104;SDS011;4095;48.942;9.104;2023-07-13T14:15:18;3.70;;;1.67;;
8104;SDS011;4095;48.942;9.104;2023-07-13T14:17:49;3.28;;;1.20;;
8104;SDS011;4095;48.942;9.104;2023-07-13T14:20:16;2.30;;;1.30;;
8104;SDS011;4095;48.942;9.104;2023-07-13T14:22:43;4.63;;;1.27;;
8104;SDS011;4095;48.942;9.104;2023-07-13T14:25:15;3.55;;;1.42;;
8104;SDS011;4095;48.942;9.104;2023-07-13T14:27:42;2.47;;;1.35;;
8104;SDS011;4095;48.942;9.104;2023-07-13T14:30:19;1.65;;;1.35;;
8104;SDS011;4095;48.942;9.104;2023-07-13T14:32:46;2.42;;;1.25;;
8104;SDS011;4095;48.942;9.104;2023-07-13T14:35:16;3.30;;;1.40;;
8104;SDS011;4095;48.942;9.104;2023-07-13T14:37:45;3.30;;;1.45;;
8104;SDS011;4095;48.942;9.104;2023-07-13T14:42:55;2.53;;;1.40;;
8104;SDS011;4095;48.942;9.104;2023-07-13T14:45:21;2.10;;;1.20;;
8104;SDS011;4095;48.942;9.104;2023-07-13T14:47:47;2.33;;;1.30;;
8104;SDS011;4095;48.942;9.104;2023-07-13T14:50:16;3.42;;;1.45;;
8104;SDS011;4095;48.942;9.104;2023-07-13T14:52:45;2.05;;;1.27;;
8104;SDS011;4095;48.942;9.104;2023-07-13T14:55:16;2.55;;;1.30;;
8104;SDS011;4095;48.942;9.104;2023-07-13T14:57:43;2.75;;;1.20;;
8104;SDS011;4095;48.942;9.104;2023-07-13T15:00:19;2.22;;;1.48;;
8104;SDS011;4095;48.942;9.104;2023-07-13T15:02:52;1.73;;;1.08;;
8104;SDS011;4095;48.942;9.104;2023-07-13T15:05:22;3.00;;;1.40;;
8104;SDS011;4095;48.942;9.104;2023-07-13T15:08:00;1.60;;;1.08;;
8104;SDS011;4095;48.942;9.104;2023-07-13T15:10:28;3.03;;;1.33;;
8104;SDS011;4095;48.942;9.104;2023-07-13T15:12:58;2.88;;;1.70;;
8104;SDS011;4095;48.942;9.104;2023-07-13T15:15:49;2.97;;;1.73;;
8104;SDS011;4095;48.942;9.104;2023-07-13T15:18:18;3.05;;;1.40;;
8104;SDS011;4095;48.942;9.104;2023-07-13T15:20:46;3.42;;;1.33;;
8104;SDS011;4095;48.942;9.104;2023-07-13T15:23:13;5.32;;;1.55;;
8104;SDS011;4095;48.942;9.104;2023-07-13T15:25:41;3.45;;;1.50;;
8104;SDS011;4095;48.942;9.104;2023-07-13T15:28:08;2.13;;;1.50;;
8104;SDS011;4095;48.942;9.104;2023-07-13T15:30:36;2.78;;;1.50;;
8104;SDS011;4095;48.942;9.104;2023-07-13T15:33:17;3.22;;;1.55;;
8104;SDS011;4095;48.942;9.104;2023-07-13T15:35:54;1.95;;;1.30;;
8104;SDS011;4095;48.942;9.104;2023-07-13T15:38:24;3.75;;;1.35;;
8104;SDS011;4095;48.942;9.104;2023-07-13T15:40:53;1.70;;;1.02;;
8104;SDS011;4095;48.942;9.104;2023-07-13T15:43:19;5.00;;;1.70;;
8104;SDS011;4095;48.942;9.104;2023-07-13T15:45:45;4.65;;;1.48;;
8104;SDS011;4095;48.942;9.104;2023-07-13T15:48:16;3.35;;;1.35;;
8104;SDS011;4095;48.942;9.104;2023-07-13T15:50:48;2.75;;;1.50;;
8104;SDS011;4095;48.942;9.104;2023-07-13T15:53:38;2.17;;;1.45;;
8104;SDS011;4095;48.942;9.104;2023-07-13T15:56:17;3.15;;;1.40;;
8104;SDS011;4095;48.942;9.104;2023-07-13T15:58:43;2.33;;;1.42;;
8104;SDS011;4095;48.942;9.104;2023-07-13T16:01:11;2.80;;;1.50;;
8104;SDS011;4095;48.942;9.104;2023-07-13T16:03:38;2.92;;;1.20;;
8104;SDS011;4095;48.942;9.104;2023-07-13T16:06:09;3.00;;;1.33;;
8104;SDS011;4095;48.942;9.104;2023-07-13T16:08:56;2.92;;;1.40;;
8104;SDS011;4095;48.942;9.104;2023-07-13T16:11:23;2.15;;;1.27;;
8104;SDS011;4095;48.942;9.104;2023-07-13T16:13:52;2.42;;;1.52;;
8104;SDS011;4095;48.942;9.104;2023-07-13T16:16:23;3.67;;;1.65;;
8104;SDS011;4095;48.942;9.104;2023-07-13T16:18:54;2.88;;;1.60;;
8104;SDS011;4095;48.942;9.104;2023-07-13T16:21:25;2.78;;;1.45;;
8104;SDS011;4095;48.942;9.104;2023-07-13T16:23:53;4.82;;;1.40;;
8104;SDS011;4095;48.942;9.104;2023-07-13T16:26:22;2.40;;;1.30;;